createdAt,value
2022-11-08T00:01:34.640Z,92.40
2022-11-08T00:04:21.940Z,92.30
2022-11-08T00:07:26.804Z,92.20
2022-11-08T00:10:33.466Z,92.20
2022-11-08T00:13:38.430Z,92.10
2022-11-08T00:16:25.127Z,92.20
2022-11-08T00:19:11.607Z,92.20
2022-11-08T00:22:00.267Z,92.30
2022-11-08T00:24:48.759Z,92.40
2022-11-08T00:27:38.073Z,92.40
2022-11-08T00:30:25.811Z,92.50
2022-11-08T00:33:13.717Z,92.50
2022-11-08T00:36:02.100Z,92.60
2022-11-08T00:38:50.016Z,92.70
2022-11-08T00:41:37.782Z,92.70
2022-11-08T00:44:27.771Z,92.80
2022-11-08T00:47:15.965Z,92.80
2022-11-08T00:50:04.004Z,92.80
2022-11-08T00:52:51.831Z,92.80
2022-11-08T00:55:40.035Z,92.80
2022-11-08T00:58:28.854Z,92.90
2022-11-08T01:01:21.086Z,92.90
2022-11-08T01:04:13.635Z,92.90
2022-11-08T01:07:01.873Z,92.90
2022-11-08T01:09:49.853Z,92.90
2022-11-08T01:12:38.030Z,92.80
2022-11-08T01:15:26.361Z,92.80
2022-11-08T01:18:18.272Z,92.80
2022-11-08T01:21:07.417Z,92.80
2022-11-08T01:23:58.031Z,92.80
2022-11-08T01:26:45.764Z,92.80
2022-11-08T01:29:34.716Z,92.80
2022-11-08T01:32:22.555Z,92.80
2022-11-08T01:35:12.429Z,92.80
2022-11-08T01:38:02.318Z,92.70
2022-11-08T01:40:51.097Z,92.60
2022-11-08T01:43:42.402Z,92.70
2022-11-08T01:46:39.350Z,92.60
2022-11-08T01:49:32.936Z,92.50
2022-11-08T01:52:27.950Z,92.40
2022-11-08T01:55:21.550Z,92.30
2022-11-08T01:58:11.329Z,92.30
2022-11-08T02:01:01.123Z,92.30
2022-11-08T02:03:49.572Z,92.30
2022-11-08T02:06:40.871Z,92.20
2022-11-08T02:09:32.795Z,92.20
2022-11-08T02:12:25.228Z,92.20
2022-11-08T02:15:14.106Z,92.20
2022-11-08T02:18:02.576Z,92.20
2022-11-08T02:21:00.696Z,92.30
2022-11-08T02:23:51.258Z,92.30
2022-11-08T02:26:40.147Z,92.40
2022-11-08T02:29:31.979Z,92.50
2022-11-08T02:32:20.319Z,92.50
2022-11-08T02:35:11.903Z,92.50
2022-11-08T02:37:59.897Z,92.50
2022-11-08T02:40:50.315Z,92.60
2022-11-08T02:43:38.673Z,92.60
2022-11-08T02:46:26.958Z,92.70
2022-11-08T02:49:14.820Z,92.80
2022-11-08T02:52:03.021Z,92.80
2022-11-08T02:54:51.837Z,92.80
2022-11-08T02:57:41.362Z,92.90
2022-11-08T03:00:29.663Z,92.90
2022-11-08T03:03:17.622Z,93.00
2022-11-08T03:06:05.607Z,93.00
2022-11-08T03:08:53.991Z,93.00
2022-11-08T03:11:41.543Z,93.30
2022-11-08T03:14:31.041Z,92.80
2022-11-08T03:17:18.703Z,92.80
2022-11-08T03:20:07.373Z,92.70
2022-11-08T03:23:00.196Z,92.70
2022-11-08T03:25:51.597Z,92.60
2022-11-08T03:28:39.075Z,92.50
2022-11-08T03:31:28.728Z,92.40
2022-11-08T03:34:16.830Z,92.40
2022-11-08T03:37:07.395Z,92.40
2022-11-08T03:39:56.049Z,92.30
2022-11-08T03:42:44.337Z,92.30
2022-11-08T03:45:32.578Z,92.30
2022-11-08T03:48:23.688Z,92.30
2022-11-08T03:51:11.973Z,92.20
2022-11-08T03:54:00.263Z,92.30
2022-11-08T03:56:48.707Z,92.40
2022-11-08T03:59:36.739Z,92.40
2022-11-08T04:02:24.944Z,92.40
2022-11-08T04:05:15.941Z,92.40
2022-11-08T04:08:05.969Z,92.40
2022-11-08T04:10:56.930Z,92.40
2022-11-08T04:13:59.136Z,92.40
2022-11-08T04:16:45.873Z,92.40
2022-11-08T04:19:51.165Z,92.60
2022-11-08T04:22:39.587Z,92.70
2022-11-08T04:25:28.939Z,92.70
2022-11-08T04:28:18.216Z,92.70
2022-11-08T04:31:10.055Z,92.70
2022-11-08T04:33:57.717Z,92.70
2022-11-08T04:36:46.224Z,92.70
2022-11-08T04:39:35.963Z,92.60
2022-11-08T04:42:24.373Z,92.60
2022-11-08T04:45:12.481Z,92.50
2022-11-08T04:48:00.490Z,92.50
2022-11-08T04:50:48.400Z,92.50
2022-11-08T04:53:36.851Z,92.50
2022-11-08T04:56:28.421Z,92.50
2022-11-08T04:59:16.691Z,92.40
2022-11-08T05:02:04.940Z,92.40
2022-11-08T05:04:53.451Z,92.40
2022-11-08T05:07:41.636Z,92.40
2022-11-08T05:10:29.753Z,92.30
2022-11-08T05:13:19.120Z,92.50
2022-11-08T05:16:09.934Z,92.60
2022-11-08T05:18:58.102Z,92.80
2022-11-08T05:21:59.611Z,92.90
2022-11-08T05:24:46.474Z,93.00
2022-11-08T05:27:34.075Z,93.10
2022-11-08T05:30:22.429Z,92.90
2022-11-08T05:33:10.676Z,92.90
2022-11-08T05:36:05.877Z,92.80
2022-11-08T05:38:54.901Z,92.70
2022-11-08T05:41:43.723Z,92.70
2022-11-08T05:44:32.356Z,92.80
2022-11-08T05:47:24.875Z,92.90
2022-11-08T05:50:18.253Z,93.00
2022-11-08T05:53:07.639Z,93.00
2022-11-08T05:56:00.452Z,93.10
2022-11-08T05:58:48.372Z,93.10
2022-11-08T06:01:36.985Z,93.00
2022-11-08T06:04:26.358Z,93.00
2022-11-08T06:07:14.529Z,93.00
2022-11-08T06:10:03.176Z,93.00
2022-11-08T06:12:51.811Z,93.10
2022-11-08T06:16:02.560Z,93.10
2022-11-08T06:18:50.877Z,93.20
2022-11-08T06:21:40.870Z,93.20
2022-11-08T06:24:29.330Z,93.10
2022-11-08T06:27:17.487Z,93.10
2022-11-08T06:30:06.141Z,93.10
2022-11-08T06:32:54.239Z,93.10
2022-11-08T06:35:42.848Z,93.00
2022-11-08T06:38:32.715Z,93.00
2022-11-08T06:41:24.644Z,93.00
2022-11-08T06:44:12.738Z,93.00
2022-11-08T06:47:00.591Z,93.00
2022-11-08T06:49:48.437Z,93.10
2022-11-08T06:52:36.641Z,93.10
2022-11-08T06:55:26.108Z,93.10
2022-11-08T06:58:14.281Z,93.10
2022-11-08T07:01:06.157Z,93.10
2022-11-08T07:03:54.152Z,93.20
2022-11-08T07:06:42.028Z,93.20
2022-11-08T07:09:30.470Z,93.30
2022-11-08T07:12:20.025Z,93.30
2022-11-08T07:15:08.821Z,93.30
2022-11-08T07:18:01.040Z,93.40
2022-11-08T07:20:49.275Z,93.40
2022-11-08T07:23:37.543Z,93.40
2022-11-08T07:26:25.339Z,93.40
2022-11-08T07:29:16.235Z,93.50
2022-11-08T07:32:04.625Z,93.50
2022-11-08T07:34:52.871Z,93.50
2022-11-08T07:37:41.305Z,93.60
2022-11-08T07:40:29.244Z,93.60
2022-11-08T07:43:17.403Z,93.60
2022-11-08T07:46:09.644Z,93.60
2022-11-08T07:48:57.741Z,93.70
2022-11-08T07:51:45.982Z,93.60
2022-11-08T07:54:33.854Z,93.60
2022-11-08T07:57:21.885Z,93.60
2022-11-08T08:00:11.125Z,93.50
2022-11-08T08:03:03.087Z,93.50
2022-11-08T08:06:00.528Z,93.50
2022-11-08T08:08:49.960Z,93.60
2022-11-08T08:11:39.893Z,93.60
2022-11-08T08:14:27.489Z,93.60
2022-11-08T08:17:15.558Z,93.50
2022-11-08T08:20:05.383Z,93.40
2022-11-08T08:22:53.873Z,93.40
2022-11-08T08:25:41.616Z,93.40
2022-11-08T08:28:29.484Z,93.40
2022-11-08T08:31:17.586Z,93.40
2022-11-08T08:34:05.998Z,93.40
2022-11-08T08:36:55.549Z,93.20
2022-11-08T08:39:43.137Z,93.10
2022-11-08T08:42:31.005Z,93.10
2022-11-08T08:45:18.767Z,93.00
2022-11-08T08:48:06.126Z,93.20
2022-11-08T08:50:53.607Z,92.60
2022-11-08T08:53:43.186Z,92.50
2022-11-08T08:56:30.811Z,92.40
2022-11-08T09:02:25.671Z,92.00
2022-11-08T09:05:14.931Z,91.80
2022-11-08T09:08:03.938Z,91.70
2022-11-08T09:10:56.689Z,91.50
2022-11-08T09:13:44.493Z,91.30
2022-11-08T09:16:32.652Z,91.20
2022-11-08T09:19:20.575Z,90.80
2022-11-08T09:22:08.921Z,90.70
2022-11-08T09:24:56.783Z,90.40
2022-11-08T09:27:46.369Z,90.20
2022-11-08T09:30:34.180Z,90.20
2022-11-08T09:33:21.765Z,89.80
2022-11-08T09:36:13.958Z,89.30
2022-11-08T09:39:01.235Z,88.90
2022-11-08T09:42:06.213Z,88.50
2022-11-08T09:45:09.246Z,89.20
2022-11-08T09:48:04.821Z,89.70
2022-11-08T09:50:55.779Z,88.80
2022-11-08T09:53:51.267Z,89.00
2022-11-08T09:56:40.742Z,88.10
2022-11-08T09:59:37.107Z,87.50
2022-11-08T10:02:27.778Z,88.60
2022-11-08T10:05:18.714Z,87.60
2022-11-08T10:08:12.936Z,87.30
2022-11-08T10:11:16.833Z,86.30
2022-11-08T10:14:11.019Z,84.90
2022-11-08T10:17:16.776Z,85.70
2022-11-08T10:20:17.654Z,85.70
2022-11-08T10:23:19.597Z,83.80
2022-11-08T10:26:13.666Z,85.20
2022-11-08T10:29:09.580Z,85.30
2022-11-08T10:32:03.510Z,84.80
2022-11-08T10:34:57.800Z,83.30
2022-11-08T10:37:49.167Z,84.00
2022-11-08T10:40:42.708Z,82.50
2022-11-08T10:43:36.858Z,81.10
2022-11-08T10:46:41.661Z,80.60
2022-11-08T10:49:32.692Z,79.50
2022-11-08T10:52:24.711Z,81.70
2022-11-08T10:55:31.373Z,82.90
2022-11-08T10:58:37.685Z,83.80
2022-11-08T11:01:27.213Z,82.80
2022-11-08T11:04:29.872Z,82.20
2022-11-08T11:07:35.027Z,79.60
2022-11-08T11:10:28.324Z,78.40
2022-11-08T11:13:21.821Z,78.00
2022-11-08T11:16:16.075Z,78.60
2022-11-08T11:19:05.898Z,77.40
2022-11-08T11:21:58.791Z,78.10
2022-11-08T11:24:51.799Z,77.60
2022-11-08T11:27:43.045Z,77.40
2022-11-08T11:30:34.466Z,77.10
2022-11-08T11:33:25.482Z,75.30
2022-11-08T11:36:17.244Z,73.70
2022-11-08T11:39:10.047Z,72.30
2022-11-08T11:42:23.984Z,72.10
2022-11-08T11:45:20.467Z,71.10
2022-11-08T11:48:18.101Z,69.90
2022-11-08T11:51:06.050Z,68.40
2022-11-08T11:53:53.924Z,69.00
2022-11-08T11:56:49.924Z,66.30
2022-11-08T11:59:53.363Z,67.10
2022-11-08T12:03:07.682Z,67.30
2022-11-08T12:06:01.394Z,66.60
2022-11-08T12:08:59.927Z,65.40
2022-11-08T12:11:59.816Z,65.50
2022-11-08T12:14:58.730Z,64.80
2022-11-08T12:18:25.781Z,63.40
2022-11-08T12:21:22.625Z,63.90
2022-11-08T12:24:23.438Z,64.50
2022-11-08T12:27:26.199Z,63.40
2022-11-08T12:30:19.651Z,62.40
2022-11-08T12:33:23.490Z,62.90
2022-11-08T12:36:23.259Z,62.90
2022-11-08T12:39:23.506Z,63.40
2022-11-08T12:42:37.621Z,62.20
2022-11-08T12:45:39.869Z,61.40
2022-11-08T12:48:48.920Z,61.40
2022-11-08T12:51:50.121Z,62.00
2022-11-08T12:54:42.370Z,61.80
2022-11-08T12:57:31.602Z,61.40
2022-11-08T13:00:21.305Z,62.30
2022-11-08T13:03:27.546Z,61.20
2022-11-08T13:06:22.233Z,60.90
2022-11-08T13:09:17.308Z,61.20
2022-11-08T13:12:18.830Z,61.60
2022-11-08T13:15:16.184Z,62.20
2022-11-08T13:18:25.420Z,62.10
2022-11-08T13:21:31.581Z,62.30
2022-11-08T13:24:44.245Z,62.10
2022-11-08T13:27:36.621Z,62.30
2022-11-08T13:30:39.938Z,62.90
2022-11-08T13:33:32.159Z,63.30
2022-11-08T13:36:31.451Z,63.10
2022-11-08T13:39:34.134Z,63.30
2022-11-08T13:42:40.193Z,63.30
2022-11-08T13:45:32.796Z,63.30
2022-11-08T13:48:37.291Z,62.90
2022-11-08T13:51:30.645Z,62.90
2022-11-08T13:54:47.924Z,63.40
2022-11-08T13:57:54.368Z,62.50
2022-11-08T14:00:48.089Z,62.40
2022-11-08T14:03:58.699Z,61.90
2022-11-08T14:06:46.592Z,61.90
2022-11-08T14:09:45.840Z,62.40
2022-11-08T14:12:39.509Z,61.80
2022-11-08T14:15:32.880Z,62.30
2022-11-08T14:18:26.736Z,62.80
2022-11-08T14:21:19.986Z,62.40
2022-11-08T14:24:16.782Z,63.40
2022-11-08T14:27:05.338Z,64.00
2022-11-08T14:30:01.824Z,63.60
2022-11-08T14:32:50.656Z,62.70
2022-11-08T14:35:41.872Z,63.20
2022-11-08T14:38:31.108Z,63.40
2022-11-08T14:41:28.733Z,63.60
2022-11-08T14:44:19.256Z,64.10
2022-11-08T14:47:26.697Z,63.60
2022-11-08T14:50:18.876Z,63.40
2022-11-08T14:53:27.412Z,63.20
2022-11-08T14:56:19.870Z,62.90
2022-11-08T14:59:08.612Z,63.00
2022-11-08T15:01:58.313Z,63.20
2022-11-08T15:04:46.453Z,62.90
2022-11-08T15:07:35.432Z,63.50
2022-11-08T15:10:25.524Z,64.20
2022-11-08T15:13:13.607Z,64.80
2022-11-08T15:16:06.538Z,65.40
2022-11-08T15:18:55.257Z,66.00
2022-11-08T15:21:49.698Z,66.70
2022-11-08T15:24:40.401Z,67.30
2022-11-08T15:27:29.896Z,67.80
2022-11-08T15:30:20.110Z,68.50
2022-11-08T15:35:56.290Z,68.70
2022-11-08T15:38:49.324Z,70.00
2022-11-08T15:41:40.757Z,70.30
2022-11-08T15:44:30.821Z,70.60
2022-11-08T15:47:37.179Z,71.20
2022-11-08T15:50:29.259Z,71.50
2022-11-08T15:53:16.816Z,71.90
2022-11-08T15:56:07.182Z,72.20
2022-11-08T15:58:54.374Z,73.40
2022-11-08T16:01:49.874Z,72.90
2022-11-08T16:04:38.655Z,73.30
2022-11-08T16:07:26.767Z,73.60
2022-11-08T16:10:15.971Z,73.90
2022-11-08T16:13:06.132Z,74.20
2022-11-08T16:15:54.059Z,74.60
2022-11-08T16:18:44.355Z,74.80
2022-11-08T16:21:32.331Z,74.30
2022-11-08T16:24:20.585Z,75.40
2022-11-08T16:27:08.628Z,75.60
2022-11-08T16:29:56.769Z,75.80
2022-11-08T16:32:44.762Z,76.20
2022-11-08T16:35:33.970Z,76.40
2022-11-08T16:38:27.871Z,76.70
2022-11-08T16:41:15.691Z,76.90
2022-11-08T16:44:03.404Z,77.10
2022-11-08T16:46:55.583Z,77.40
2022-11-08T16:49:47.541Z,76.90
2022-11-08T16:52:39.991Z,77.70
2022-11-08T16:55:30.182Z,78.00
2022-11-08T16:58:18.045Z,78.10
2022-11-08T17:01:10.458Z,78.40
2022-11-08T17:03:58.504Z,78.60
2022-11-08T17:06:45.820Z,78.80
2022-11-08T17:09:34.670Z,79.00
2022-11-08T17:12:22.519Z,80.20
2022-11-08T17:15:14.684Z,79.50
2022-11-08T17:18:03.578Z,79.70
2022-11-08T17:20:52.058Z,80.40
2022-11-08T17:23:39.827Z,93.00
2022-11-08T17:26:28.851Z,80.40
2022-11-08T17:29:16.106Z,80.70
2022-11-08T17:32:03.415Z,81.00
2022-11-08T17:34:51.383Z,81.30
2022-11-08T17:37:40.210Z,81.60
2022-11-08T17:40:28.730Z,81.90
2022-11-08T17:43:20.404Z,82.10
2022-11-08T17:46:10.973Z,82.20
2022-11-08T17:48:58.894Z,82.50
2022-11-08T17:51:46.634Z,82.70
2022-11-08T17:54:34.249Z,82.80
2022-11-08T18:00:12.227Z,93.00
2022-11-08T18:03:01.178Z,83.20
2022-11-08T18:05:54.880Z,83.40
2022-11-08T18:08:42.133Z,83.80
2022-11-08T18:11:29.301Z,83.20
2022-11-08T18:14:16.938Z,99.70
2022-11-08T18:17:05.982Z,84.20
2022-11-08T18:19:53.190Z,84.50
2022-11-08T18:22:40.560Z,84.70
2022-11-08T18:25:28.314Z,84.90
2022-11-08T18:28:15.770Z,85.10
2022-11-08T18:31:08.192Z,85.30
2022-11-08T18:33:58.449Z,85.40
2022-11-08T18:36:48.410Z,85.70
2022-11-08T18:39:35.885Z,85.80
2022-11-08T18:42:23.603Z,86.00
2022-11-08T18:45:11.552Z,86.20
2022-11-08T18:47:59.161Z,86.30
2022-11-08T18:50:51.477Z,86.40
2022-11-08T18:53:39.863Z,86.60
2022-11-08T18:56:26.976Z,86.80
2022-11-08T18:59:14.909Z,86.90
2022-11-08T19:02:03.678Z,87.00
2022-11-08T19:04:51.560Z,87.20
2022-11-08T19:07:40.442Z,87.10
2022-11-08T19:10:28.131Z,87.40
2022-11-08T19:13:15.882Z,87.60
2022-11-08T19:16:05.144Z,87.60
2022-11-08T19:18:52.442Z,87.70
2022-11-08T19:21:43.068Z,87.80
2022-11-08T19:24:31.870Z,88.00
2022-11-08T19:27:20.664Z,87.90
2022-11-08T19:30:08.842Z,87.80
2022-11-08T19:32:56.392Z,88.00
2022-11-08T19:35:43.644Z,87.90
2022-11-08T19:38:32.743Z,87.90
2022-11-08T19:41:24.328Z,88.10
2022-11-08T19:44:11.879Z,88.20
2022-11-08T19:46:59.167Z,88.30
2022-11-08T19:49:46.993Z,88.50
2022-11-08T19:52:34.961Z,88.50
2022-11-08T19:55:22.489Z,88.70
2022-11-08T19:58:11.215Z,88.80
2022-11-08T20:00:58.866Z,88.90
2022-11-08T20:03:46.914Z,89.00
2022-11-08T20:06:34.598Z,89.10
2022-11-08T20:09:27.349Z,89.10
2022-11-08T20:12:17.871Z,89.00
2022-11-08T20:15:07.350Z,89.00
2022-11-08T20:17:54.603Z,89.10
2022-11-08T20:20:43.878Z,89.20
2022-11-08T20:23:31.168Z,89.30
2022-11-08T20:26:21.226Z,89.10
2022-11-08T20:29:09.002Z,89.00
2022-11-08T20:31:57.694Z,88.90
2022-11-08T20:34:46.077Z,88.80
2022-11-08T20:37:34.023Z,88.90
2022-11-08T20:40:21.152Z,88.90
2022-11-08T20:43:09.239Z,88.90
2022-11-08T20:46:05.216Z,88.70
2022-11-08T20:49:00.607Z,89.30
2022-11-08T20:51:48.840Z,88.50
2022-11-08T20:54:39.918Z,88.50
2022-11-08T20:57:30.216Z,88.50
2022-11-08T21:00:32.838Z,88.30
2022-11-08T21:03:27.251Z,88.20
2022-11-08T21:06:17.395Z,88.20
2022-11-08T21:09:32.755Z,88.10
2022-11-08T21:12:12.787Z,88.00
2022-11-08T21:15:00.063Z,88.00
2022-11-08T21:17:47.789Z,88.00
2022-11-08T21:20:35.198Z,88.00
2022-11-08T21:23:24.068Z,88.10
2022-11-08T21:26:12.268Z,87.90
2022-11-08T21:28:59.573Z,87.90
2022-11-08T21:31:46.671Z,88.80
2022-11-08T21:34:34.317Z,87.90
2022-11-08T21:37:21.478Z,88.00
2022-11-08T21:40:10.625Z,88.00
2022-11-08T21:42:57.741Z,88.00
2022-11-08T21:45:45.078Z,88.00
2022-11-08T21:48:32.588Z,88.10
2022-11-08T21:51:20.010Z,88.20
2022-11-08T21:54:07.981Z,88.40
2022-11-08T21:56:57.079Z,88.40
2022-11-08T21:59:44.184Z,88.50
2022-11-08T22:02:31.563Z,88.80
2022-11-08T22:05:19.110Z,88.80
2022-11-08T22:08:06.753Z,88.80
2022-11-08T22:10:53.995Z,89.00
2022-11-08T22:13:43.445Z,89.20
2022-11-08T22:16:31.083Z,89.30
2022-11-08T22:19:18.531Z,89.30
2022-11-08T22:22:06.095Z,89.50
2022-11-08T22:24:53.308Z,89.50
2022-11-08T22:27:40.543Z,89.60
2022-11-08T22:30:29.350Z,89.70
2022-11-08T22:33:16.406Z,89.70
2022-11-08T22:36:03.995Z,89.90
2022-11-08T22:38:51.318Z,90.00
2022-11-08T22:41:38.597Z,90.00
2022-11-08T22:44:25.646Z,90.00
2022-11-08T22:47:14.614Z,90.10
2022-11-08T22:50:02.316Z,90.20
2022-11-08T22:52:49.947Z,90.10
2022-11-08T22:55:37.489Z,90.20
2022-11-08T22:58:24.760Z,90.20
2022-11-08T23:01:14.030Z,90.20
2022-11-08T23:04:02.830Z,90.20
2022-11-08T23:06:50.039Z,90.20
2022-11-08T23:09:37.381Z,90.60
2022-11-08T23:12:38.381Z,90.30
2022-11-08T23:15:33.529Z,90.40
2022-11-08T23:18:19.671Z,90.80
2022-11-08T23:21:25.219Z,92.50
2022-11-08T23:24:20.012Z,90.50
2022-11-08T23:27:25.458Z,90.50
2022-11-08T23:30:33.832Z,90.60
2022-11-08T23:33:20.562Z,90.60
2022-11-08T23:36:11.692Z,91.20
2022-11-08T23:38:58.372Z,92.10
2022-11-08T23:47:33.547Z,99.90
2022-11-08T23:50:20.018Z,99.90
